createdAt,value
2022-10-05T00:01:15.495Z,9.70
2022-10-05T00:03:43.714Z,11.50
2022-10-05T00:06:13.328Z,10.27
2022-10-05T00:08:41.862Z,9.20
2022-10-05T00:11:13.589Z,7.97
2022-10-05T00:13:43.572Z,8.37
2022-10-05T00:16:18.042Z,9.17
2022-10-05T00:18:50.604Z,8.83
2022-10-05T00:21:21.532Z,6.97
2022-10-05T00:23:50.602Z,7.90
2022-10-05T00:26:22.199Z,9.30
2022-10-05T00:28:51.872Z,9.67
2022-10-05T00:31:22.645Z,8.27
2022-10-05T00:33:51.209Z,7.80
2022-10-05T00:36:19.764Z,10.73
2022-10-05T00:38:48.371Z,10.73
2022-10-05T00:41:22.687Z,8.43
2022-10-05T00:44:19.444Z,9.07
2022-10-05T00:46:56.757Z,7.33
2022-10-05T00:49:42.702Z,9.60
2022-10-05T00:52:28.004Z,7.27
2022-10-05T00:55:04.344Z,8.53
2022-10-05T00:57:43.487Z,8.57
2022-10-05T01:00:16.974Z,6.47
2022-10-05T01:02:53.181Z,5.20
2022-10-05T01:05:33.244Z,6.63
2022-10-05T01:08:09.877Z,10.33
2022-10-05T01:10:46.415Z,5.37
2022-10-05T01:13:25.732Z,6.17
2022-10-05T01:16:04.224Z,5.10
2022-10-05T01:18:39.880Z,4.73
2022-10-05T01:21:17.093Z,5.37
2022-10-05T01:24:14.000Z,6.10
2022-10-05T01:27:12.679Z,8.10
2022-10-05T01:29:47.779Z,5.43
2022-10-05T01:32:24.260Z,7.50
2022-10-05T01:34:59.682Z,7.97
2022-10-05T01:37:31.773Z,5.60
2022-10-05T01:40:09.638Z,7.97
2022-10-05T01:42:50.933Z,6.07
2022-10-05T01:45:27.681Z,6.67
2022-10-05T01:48:04.384Z,7.47
2022-10-05T01:50:43.367Z,6.77
2022-10-05T01:53:24.516Z,6.57
2022-10-05T01:56:02.457Z,6.63
2022-10-05T01:58:39.393Z,7.97
2022-10-05T02:01:18.180Z,8.37
2022-10-05T02:03:52.330Z,8.93
2022-10-05T02:06:24.383Z,8.10
2022-10-05T02:08:58.027Z,6.03
2022-10-05T02:11:26.367Z,5.83
2022-10-05T02:13:59.768Z,5.97
2022-10-05T02:16:36.120Z,8.53
2022-10-05T02:19:14.972Z,6.00
2022-10-05T02:21:45.256Z,10.33
2022-10-05T02:24:22.197Z,7.07
2022-10-05T02:26:52.116Z,7.43
2022-10-05T02:29:24.119Z,9.37
2022-10-05T02:31:57.681Z,7.53
2022-10-05T02:34:28.419Z,6.73
2022-10-05T02:37:15.795Z,6.23
2022-10-05T02:39:53.499Z,7.70
2022-10-05T02:42:27.528Z,6.17
2022-10-05T02:45:04.963Z,7.50
2022-10-05T02:47:42.512Z,7.00
2022-10-05T02:50:18.487Z,6.10
2022-10-05T02:52:54.510Z,7.83
2022-10-05T02:55:30.538Z,6.93
2022-10-05T02:58:03.914Z,7.30
2022-10-05T03:00:36.115Z,6.07
2022-10-05T03:03:11.833Z,7.13
2022-10-05T03:05:47.981Z,5.97
2022-10-05T03:08:21.499Z,6.17
2022-10-05T03:10:59.061Z,5.23
2022-10-05T03:13:35.200Z,5.70
2022-10-05T03:16:22.245Z,6.23
2022-10-05T03:19:02.340Z,8.13
2022-10-05T03:21:49.631Z,6.50
2022-10-05T03:24:44.449Z,4.83
2022-10-05T03:27:23.379Z,5.87
2022-10-05T03:29:58.777Z,4.73
2022-10-05T03:32:35.144Z,4.90
2022-10-05T03:35:13.284Z,5.57
2022-10-05T03:37:47.428Z,5.23
2022-10-05T03:40:27.700Z,7.07
2022-10-05T03:43:07.569Z,6.27
2022-10-05T03:45:42.704Z,5.57
2022-10-05T03:48:15.440Z,5.83
2022-10-05T03:50:55.799Z,4.83
2022-10-05T03:53:26.519Z,4.17
2022-10-05T03:56:03.260Z,5.70
2022-10-05T03:58:37.035Z,6.00
2022-10-05T04:01:09.980Z,4.80
2022-10-05T04:03:42.935Z,5.60
2022-10-05T04:06:16.304Z,5.13
2022-10-05T04:08:48.474Z,5.23
2022-10-05T04:11:21.122Z,5.73
2022-10-05T04:13:53.211Z,3.97
2022-10-05T04:16:27.993Z,4.23
2022-10-05T04:19:01.030Z,4.90
2022-10-05T04:21:33.679Z,6.07
2022-10-05T04:24:07.291Z,7.17
2022-10-05T04:26:39.656Z,6.20
2022-10-05T04:29:17.442Z,4.80
2022-10-05T04:32:02.522Z,4.67
2022-10-05T04:34:47.175Z,9.93
2022-10-05T04:37:22.881Z,5.87
2022-10-05T04:40:04.031Z,5.80
2022-10-05T04:42:37.599Z,5.03
2022-10-05T04:45:15.763Z,6.30
2022-10-05T04:48:23.042Z,8.63
2022-10-05T04:51:03.325Z,7.87
2022-10-05T04:53:40.777Z,6.80
2022-10-05T04:56:12.983Z,9.10
2022-10-05T04:59:08.216Z,5.13
2022-10-05T05:01:57.172Z,7.30
2022-10-05T05:04:43.315Z,5.33
2022-10-05T05:07:23.676Z,5.00
2022-10-05T05:10:18.040Z,5.47
2022-10-05T05:12:57.488Z,5.73
2022-10-05T05:15:38.440Z,6.23
2022-10-05T05:18:39.752Z,4.47
2022-10-05T05:21:15.599Z,6.27
2022-10-05T05:23:50.443Z,4.40
2022-10-05T05:26:28.418Z,5.87
2022-10-05T05:29:06.579Z,7.47
2022-10-05T05:31:45.732Z,4.23
2022-10-05T05:34:32.191Z,4.70
2022-10-05T05:37:09.094Z,4.87
2022-10-05T05:39:47.017Z,3.97
2022-10-05T05:42:26.288Z,6.03
2022-10-05T05:44:57.822Z,8.77
2022-10-05T05:47:35.280Z,5.50
2022-10-05T05:50:22.779Z,4.50
2022-10-05T05:52:54.549Z,4.83
2022-10-05T05:55:30.200Z,5.70
2022-10-05T05:58:05.903Z,5.40
2022-10-05T06:00:39.582Z,5.03
2022-10-05T06:03:14.192Z,6.57
2022-10-05T06:05:45.558Z,10.07
2022-10-05T06:08:19.692Z,5.80
2022-10-05T06:10:52.798Z,6.77
2022-10-05T06:13:25.956Z,5.13
2022-10-05T06:15:58.155Z,7.73
2022-10-05T06:18:27.027Z,6.00
2022-10-05T06:21:01.088Z,6.33
2022-10-05T06:23:35.234Z,8.63
2022-10-05T06:26:26.064Z,5.37
2022-10-05T06:29:00.760Z,5.47
2022-10-05T06:31:43.630Z,6.80
2022-10-05T06:34:24.416Z,5.37
2022-10-05T06:36:59.628Z,7.03
2022-10-05T06:39:52.084Z,4.23
2022-10-05T06:42:33.392Z,4.63
2022-10-05T06:45:10.579Z,5.10
2022-10-05T06:47:48.328Z,6.20
2022-10-05T06:50:23.003Z,6.37
2022-10-05T06:53:03.828Z,6.97
2022-10-05T06:55:40.635Z,4.57
2022-10-05T06:58:23.611Z,6.83
2022-10-05T07:00:57.165Z,11.53
2022-10-05T07:03:34.495Z,13.80
2022-10-05T07:06:11.320Z,7.50
2022-10-05T07:08:58.897Z,8.47
2022-10-05T07:11:39.601Z,7.37
2022-10-05T07:14:24.722Z,8.93
2022-10-05T07:17:17.268Z,5.30
2022-10-05T07:19:52.535Z,7.97
2022-10-05T07:22:36.792Z,5.57
2022-10-05T07:25:12.133Z,5.50
2022-10-05T07:27:50.937Z,8.07
2022-10-05T07:30:21.400Z,3.77
2022-10-05T07:33:00.872Z,6.93
2022-10-05T07:35:58.766Z,5.50
2022-10-05T07:38:33.063Z,4.90
2022-10-05T07:41:06.986Z,8.40
2022-10-05T07:44:01.599Z,5.30
2022-10-05T07:46:44.993Z,8.83
2022-10-05T07:49:22.856Z,5.87
2022-10-05T07:51:55.606Z,5.20
2022-10-05T07:54:29.618Z,6.70
2022-10-05T07:57:04.824Z,6.57
2022-10-05T07:59:41.488Z,6.37
2022-10-05T08:02:20.352Z,7.83
2022-10-05T08:05:02.600Z,11.50
2022-10-05T08:07:32.803Z,6.10
2022-10-05T08:10:15.131Z,11.07
2022-10-05T08:12:56.139Z,7.57
2022-10-05T08:15:29.032Z,6.17
2022-10-05T08:18:01.200Z,7.37
2022-10-05T08:20:41.596Z,7.53
2022-10-05T08:23:23.926Z,11.97
2022-10-05T08:26:01.212Z,9.00
2022-10-05T08:28:35.012Z,11.13
2022-10-05T08:31:14.602Z,12.43
2022-10-05T08:33:54.457Z,15.43
2022-10-05T08:36:33.184Z,13.37
2022-10-05T08:39:06.885Z,12.27
2022-10-05T08:42:09.385Z,14.17
2022-10-05T08:45:09.417Z,14.70
2022-10-05T08:48:25.588Z,14.50
2022-10-05T08:51:30.312Z,13.67
2022-10-05T08:54:30.120Z,16.03
2022-10-05T08:57:29.607Z,17.93
2022-10-05T09:00:10.785Z,18.83
2022-10-05T09:03:33.631Z,17.43
2022-10-05T09:06:35.980Z,21.93
2022-10-05T09:09:34.798Z,16.53
2022-10-05T09:12:20.530Z,16.53
2022-10-05T09:15:24.440Z,18.37
2022-10-05T09:18:32.360Z,20.00
2022-10-05T09:21:07.405Z,19.03
2022-10-05T09:23:42.860Z,21.03
2022-10-05T09:26:43.080Z,23.37
2022-10-05T09:29:37.244Z,23.03
2022-10-05T09:32:39.947Z,22.73
2022-10-05T09:35:27.663Z,25.93
2022-10-05T09:38:14.739Z,33.13
2022-10-05T09:41:39.832Z,23.37
2022-10-05T09:44:42.621Z,26.00
2022-10-05T09:48:03.642Z,24.60
2022-10-05T09:51:14.109Z,24.50
2022-10-05T09:54:20.619Z,22.67
2022-10-05T09:57:31.507Z,24.50
2022-10-05T10:00:15.329Z,26.07
2022-10-05T10:03:00.209Z,22.53
2022-10-05T10:05:45.243Z,26.07
2022-10-05T10:08:26.603Z,28.10
2022-10-05T10:11:04.840Z,25.07
2022-10-05T10:14:17.795Z,29.23
2022-10-05T10:17:07.996Z,29.60
2022-10-05T10:20:17.821Z,28.43
2022-10-05T10:23:13.420Z,25.53
2022-10-05T10:26:14.450Z,29.37
2022-10-05T10:29:05.342Z,28.57
2022-10-05T10:31:51.622Z,27.50
2022-10-05T10:34:54.326Z,28.13
2022-10-05T10:37:39.196Z,27.73
2022-10-05T10:40:27.106Z,23.97
2022-10-05T10:43:23.118Z,31.00
2022-10-05T10:46:01.046Z,29.10
2022-10-05T10:48:56.198Z,26.43
2022-10-05T10:52:00.345Z,26.63
2022-10-05T10:55:05.707Z,23.93
2022-10-05T10:57:48.257Z,21.03
2022-10-05T11:00:47.424Z,23.30
2022-10-05T11:03:55.254Z,22.73
2022-10-05T11:06:47.863Z,24.07
2022-10-05T11:09:32.705Z,23.40
2022-10-05T11:12:46.154Z,26.00
2022-10-05T11:15:45.579Z,24.43
2022-10-05T11:18:21.604Z,28.13
2022-10-05T11:21:21.673Z,24.30
2022-10-05T11:24:23.257Z,22.80
2022-10-05T11:27:11.595Z,23.13
2022-10-05T11:30:04.432Z,24.70
2022-10-05T11:33:26.290Z,22.97
2022-10-05T11:36:33.585Z,27.43
2022-10-05T11:39:30.375Z,23.30
2022-10-05T11:42:53.307Z,29.07
2022-10-05T11:45:24.757Z,26.67
2022-10-05T11:48:25.994Z,26.03
2022-10-05T11:51:18.512Z,26.13
2022-10-05T11:53:57.592Z,25.73
2022-10-05T11:56:34.797Z,22.87
2022-10-05T11:59:14.183Z,24.60
2022-10-05T12:01:51.995Z,24.93
2022-10-05T12:04:27.577Z,25.80
2022-10-05T12:07:08.869Z,25.70
2022-10-05T12:10:16.918Z,31.43
2022-10-05T12:13:04.324Z,24.57
2022-10-05T12:15:42.615Z,26.07
2022-10-05T12:18:16.786Z,23.00
2022-10-05T12:20:50.732Z,20.43
2022-10-05T12:23:26.020Z,25.80
2022-10-05T12:26:01.161Z,23.63
2022-10-05T12:28:37.957Z,24.03
2022-10-05T12:31:25.674Z,21.43
2022-10-05T12:34:03.112Z,25.30
2022-10-05T12:37:02.537Z,20.13
2022-10-05T12:39:38.112Z,20.47
2022-10-05T12:42:19.416Z,23.20
2022-10-05T12:45:05.700Z,19.87
2022-10-05T12:47:47.559Z,19.40
2022-10-05T12:50:27.145Z,18.80
2022-10-05T12:53:15.031Z,20.97
2022-10-05T12:55:54.519Z,21.20
2022-10-05T12:58:30.573Z,22.00
2022-10-05T13:01:09.302Z,20.50
2022-10-05T13:03:45.535Z,21.13
2022-10-05T13:06:23.382Z,22.00
2022-10-05T13:08:57.790Z,21.30
2022-10-05T13:11:34.851Z,20.37
2022-10-05T13:14:14.340Z,16.40
2022-10-05T13:16:54.765Z,20.87
2022-10-05T13:19:35.398Z,19.40
2022-10-05T13:22:20.282Z,17.87
2022-10-05T13:24:59.583Z,17.07
2022-10-05T13:27:32.605Z,22.93
2022-10-05T13:30:05.042Z,19.83
2022-10-05T13:32:37.574Z,16.93
2022-10-05T13:35:29.513Z,16.33
2022-10-05T13:38:09.046Z,15.20
2022-10-05T13:40:43.395Z,15.13
2022-10-05T13:43:20.175Z,18.37
2022-10-05T13:45:56.704Z,16.10
2022-10-05T13:48:48.620Z,14.23
2022-10-05T13:51:22.678Z,18.67
2022-10-05T13:53:57.364Z,15.80
2022-10-05T13:56:31.275Z,18.07
2022-10-05T13:59:08.316Z,15.00
2022-10-05T14:01:42.892Z,14.63
2022-10-05T14:04:19.867Z,18.27
2022-10-05T14:06:51.839Z,19.87
2022-10-05T14:09:31.347Z,19.67
2022-10-05T14:12:15.436Z,16.17
2022-10-05T14:14:49.510Z,17.70
2022-10-05T14:17:32.878Z,16.43
2022-10-05T14:20:03.409Z,15.60
2022-10-05T14:22:43.004Z,19.47
2022-10-05T14:25:17.204Z,19.80
2022-10-05T14:27:52.668Z,18.23
2022-10-05T14:30:23.832Z,19.43
2022-10-05T14:32:56.223Z,22.77
2022-10-05T14:35:25.783Z,15.67
2022-10-05T14:38:00.413Z,17.17
2022-10-05T14:40:34.724Z,16.57
2022-10-05T14:43:19.387Z,14.63
2022-10-05T14:45:56.125Z,16.33
2022-10-05T14:48:27.903Z,13.33
2022-10-05T14:50:59.454Z,19.47
2022-10-05T14:53:39.573Z,17.67
2022-10-05T14:56:26.948Z,13.80
2022-10-05T14:59:15.023Z,14.40
2022-10-05T15:01:52.342Z,15.83
2022-10-05T15:04:33.987Z,14.67
2022-10-05T15:07:14.590Z,16.87
2022-10-05T15:10:03.316Z,17.00
2022-10-05T15:12:34.198Z,16.83
2022-10-05T15:15:12.775Z,15.27
2022-10-05T15:17:46.545Z,15.47
2022-10-05T15:20:24.548Z,12.10
2022-10-05T15:23:02.762Z,15.37
2022-10-05T15:25:37.388Z,17.37
2022-10-05T15:28:12.253Z,11.10
2022-10-05T15:30:48.051Z,16.97
2022-10-05T15:33:27.666Z,13.90
2022-10-05T15:36:15.297Z,13.83
2022-10-05T15:38:53.480Z,14.03
2022-10-05T15:41:31.095Z,13.90
2022-10-05T15:44:08.271Z,14.00
2022-10-05T15:46:46.190Z,16.73
2022-10-05T15:49:25.578Z,14.07
2022-10-05T15:52:03.330Z,10.67
2022-10-05T15:54:59.017Z,12.50
2022-10-05T15:57:37.411Z,11.93
2022-10-05T16:00:11.470Z,11.03
2022-10-05T16:02:47.277Z,11.20
2022-10-05T16:05:51.277Z,12.97
2022-10-05T16:08:49.775Z,12.97
2022-10-05T16:11:28.144Z,12.07
2022-10-05T16:14:09.739Z,12.10
2022-10-05T16:16:46.070Z,14.67
2022-10-05T16:19:20.855Z,20.60
2022-10-05T16:21:58.327Z,15.97
2022-10-05T16:24:49.746Z,14.77
2022-10-05T16:27:24.629Z,13.37
2022-10-05T16:30:02.239Z,14.90
2022-10-05T16:32:36.816Z,15.63
2022-10-05T16:35:17.855Z,14.97
2022-10-05T16:37:56.246Z,12.83
2022-10-05T16:40:32.100Z,14.23
2022-10-05T16:43:10.870Z,13.90
2022-10-05T16:45:52.799Z,13.07
2022-10-05T16:48:26.163Z,13.23
2022-10-05T16:51:13.187Z,11.77
2022-10-05T16:53:45.216Z,14.37
2022-10-05T16:56:16.827Z,17.57
2022-10-05T16:58:58.756Z,21.53
2022-10-05T17:01:42.511Z,12.50
2022-10-05T17:04:26.254Z,12.43
2022-10-05T17:07:12.875Z,11.93
2022-10-05T17:09:57.931Z,11.37
2022-10-05T17:12:40.202Z,14.53
2022-10-05T17:15:29.657Z,11.73
2022-10-05T17:18:19.435Z,13.37
2022-10-05T17:20:51.613Z,10.17
2022-10-05T17:23:32.139Z,11.73
2022-10-05T17:26:19.758Z,10.97
2022-10-05T17:29:00.424Z,10.17
2022-10-05T17:31:32.396Z,11.33
2022-10-05T17:34:28.157Z,12.90
2022-10-05T17:37:01.508Z,10.50
2022-10-05T17:39:50.603Z,11.10
2022-10-05T17:42:48.113Z,10.67
2022-10-05T17:45:51.589Z,9.47
2022-10-05T17:48:39.368Z,137.03
2022-10-05T17:51:56.135Z,45.40
2022-10-05T17:54:44.583Z,17.47
2022-10-05T17:57:23.434Z,12.20
2022-10-05T18:00:02.995Z,11.60
2022-10-05T18:02:43.891Z,13.33
2022-10-05T18:05:27.711Z,10.27
2022-10-05T18:08:37.507Z,9.77
2022-10-05T18:11:17.274Z,12.67
2022-10-05T18:13:50.185Z,11.37
2022-10-05T18:16:51.824Z,11.83
2022-10-05T18:19:23.435Z,12.37
2022-10-05T18:22:04.601Z,11.77
2022-10-05T18:25:03.955Z,10.80
2022-10-05T18:28:00.891Z,10.80
2022-10-05T18:30:33.198Z,13.73
2022-10-05T18:33:19.444Z,15.03
2022-10-05T18:35:57.379Z,10.67
2022-10-05T18:38:38.261Z,9.90
2022-10-05T18:41:13.484Z,9.70
2022-10-05T18:43:51.025Z,8.90
2022-10-05T18:46:32.387Z,37.50
2022-10-05T18:49:15.496Z,24.40
2022-10-05T18:51:51.993Z,15.97
2022-10-05T18:54:37.362Z,11.23
2022-10-05T18:57:46.656Z,11.20
2022-10-05T19:00:19.059Z,13.00
2022-10-05T19:02:51.338Z,11.53
2022-10-05T19:05:46.816Z,13.07
2022-10-05T19:08:24.862Z,13.00
2022-10-05T19:10:57.803Z,9.17
2022-10-05T19:13:38.678Z,11.10
2022-10-05T19:16:29.916Z,10.10
2022-10-05T19:19:29.350Z,10.60
2022-10-05T19:22:04.688Z,11.43
2022-10-05T19:24:55.176Z,14.17
2022-10-05T19:27:36.044Z,8.90
2022-10-05T19:30:18.670Z,10.10
2022-10-05T19:33:04.884Z,12.80
2022-10-05T19:35:41.353Z,14.10
2022-10-05T19:38:20.632Z,9.07
2022-10-05T19:40:56.582Z,11.50
2022-10-05T19:43:50.883Z,12.47
2022-10-05T19:46:30.868Z,10.83
2022-10-05T19:49:01.422Z,10.17
2022-10-05T19:51:31.481Z,11.00
2022-10-05T19:54:02.995Z,11.50
2022-10-05T19:56:35.387Z,13.57
2022-10-05T19:59:13.311Z,14.70
2022-10-05T20:01:47.132Z,16.47
2022-10-05T20:04:32.681Z,14.60
2022-10-05T20:07:02.287Z,12.83
2022-10-05T20:09:31.500Z,14.57
2022-10-05T20:12:00.873Z,12.63
2022-10-05T20:14:32.996Z,13.93
2022-10-05T20:17:44.320Z,11.87
2022-10-05T20:20:24.896Z,11.37
2022-10-05T20:22:53.057Z,13.83
2022-10-05T20:25:32.525Z,12.00
2022-10-05T20:28:02.412Z,12.43
2022-10-05T20:30:31.394Z,13.47
2022-10-05T20:33:01.636Z,14.53
2022-10-05T20:35:32.409Z,15.23
2022-10-05T20:38:01.043Z,14.40
2022-10-05T20:40:30.342Z,18.83
2022-10-05T20:42:59.363Z,17.70
2022-10-05T20:45:27.673Z,16.30
2022-10-05T20:47:55.828Z,13.10
2022-10-05T20:50:24.060Z,14.77
2022-10-05T20:52:53.634Z,18.07
2022-10-05T20:55:21.795Z,20.10
2022-10-05T20:57:50.010Z,18.40
2022-10-05T21:00:18.383Z,14.90
2022-10-05T21:02:46.945Z,16.47
2022-10-05T21:05:15.568Z,17.67
2022-10-05T21:07:43.831Z,15.80
2022-10-05T21:10:14.275Z,15.63
2022-10-05T21:12:42.451Z,16.77
2022-10-05T21:15:11.084Z,14.27
2022-10-05T21:17:39.950Z,14.53
2022-10-05T21:20:11.652Z,21.67
2022-10-05T21:22:39.832Z,15.53
2022-10-05T21:25:09.030Z,16.30
2022-10-05T21:27:38.582Z,17.30
2022-10-05T21:30:07.814Z,17.73
2022-10-05T21:32:39.499Z,19.27
2022-10-05T21:35:10.366Z,15.20
2022-10-05T21:37:38.556Z,18.23
2022-10-05T21:40:07.423Z,13.50
2022-10-05T21:42:35.682Z,21.57
2022-10-05T21:45:05.983Z,16.57
2022-10-05T21:47:34.597Z,14.77
2022-10-05T21:50:03.865Z,18.63
2022-10-05T21:52:32.745Z,15.07
2022-10-05T21:55:01.002Z,16.43
2022-10-05T21:57:29.247Z,15.97
2022-10-05T21:59:57.546Z,19.67
2022-10-05T22:02:27.119Z,14.20
2022-10-05T22:04:55.252Z,16.47
2022-10-05T22:07:23.423Z,17.70
2022-10-05T22:09:52.515Z,14.70
2022-10-05T22:12:20.991Z,14.07
2022-10-05T22:14:49.926Z,14.77
2022-10-05T22:17:22.816Z,14.93
2022-10-05T22:19:52.549Z,16.17
2022-10-05T22:22:20.679Z,14.63
2022-10-05T22:24:48.952Z,16.13
2022-10-05T22:27:17.873Z,14.00
2022-10-05T22:29:46.150Z,14.43
2022-10-05T22:32:14.429Z,15.57
2022-10-05T22:34:42.685Z,16.27
2022-10-05T22:37:15.315Z,18.00
2022-10-05T22:39:44.144Z,17.13
2022-10-05T22:42:12.367Z,14.27
2022-10-05T22:44:40.552Z,19.30
2022-10-05T22:47:08.647Z,13.57
2022-10-05T22:49:36.826Z,15.23
2022-10-05T22:52:05.013Z,16.40
2022-10-05T22:54:37.284Z,20.77
2022-10-05T22:57:05.839Z,15.87
2022-10-05T22:59:34.009Z,16.50
2022-10-05T23:02:02.315Z,15.37
2022-10-05T23:04:31.159Z,18.60
2022-10-05T23:06:59.499Z,16.23
2022-10-05T23:09:27.696Z,16.20
2022-10-05T23:11:58.176Z,16.40
2022-10-05T23:14:26.485Z,16.43
2022-10-05T23:16:54.664Z,15.13
2022-10-05T23:19:23.623Z,15.73
2022-10-05T23:21:51.780Z,14.83
2022-10-05T23:24:19.875Z,15.00
2022-10-05T23:26:48.048Z,17.40
2022-10-05T23:29:17.623Z,13.17
2022-10-05T23:31:45.870Z,16.40
2022-10-05T23:34:14.082Z,16.80
2022-10-05T23:36:42.222Z,15.10
2022-10-05T23:39:10.566Z,12.33
2022-10-05T23:41:38.727Z,17.43
2022-10-05T23:44:06.885Z,17.80
2022-10-05T23:46:36.413Z,13.10
2022-10-05T23:49:04.622Z,15.13
2022-10-05T23:51:33.443Z,16.93
2022-10-05T23:54:01.762Z,13.53
2022-10-05T23:56:29.925Z,14.93
2022-10-05T23:58:58.109Z,12.97
